sensor_id;sensor_type;location;lat;lon;timestamp;P1;durP1;ratioP1;P2;durP2;ratioP2
8592;SDS011;4334;49.982;8.398;2023-02-24T00:01:50;27.40;;;14.40;;
8592;SDS011;4334;49.982;8.398;2023-02-24T00:04:25;28.27;;;14.77;;
8592;SDS011;4334;49.982;8.398;2023-02-24T00:06:53;27.53;;;13.73;;
8592;SDS011;4334;49.982;8.398;2023-02-24T00:09:21;26.83;;;13.07;;
8592;SDS011;4334;49.982;8.398;2023-02-24T00:11:52;25.13;;;13.17;;
8592;SDS011;4334;49.982;8.398;2023-02-24T00:14:21;27.50;;;13.17;;
8592;SDS011;4334;49.982;8.398;2023-02-24T00:16:50;26.37;;;13.03;;
8592;SDS011;4334;49.982;8.398;2023-02-24T00:19:18;26.53;;;13.37;;
8592;SDS011;4334;49.982;8.398;2023-02-24T00:21:49;26.50;;;13.57;;
8592;SDS011;4334;49.982;8.398;2023-02-24T00:24:18;30.17;;;14.13;;
8592;SDS011;4334;49.982;8.398;2023-02-24T00:26:49;28.33;;;13.47;;
8592;SDS011;4334;49.982;8.398;2023-02-24T00:29:19;29.70;;;14.10;;
8592;SDS011;4334;49.982;8.398;2023-02-24T00:31:48;27.40;;;13.30;;
8592;SDS011;4334;49.982;8.398;2023-02-24T00:34:20;31.20;;;15.33;;
8592;SDS011;4334;49.982;8.398;2023-02-24T00:36:49;29.07;;;14.07;;
8592;SDS011;4334;49.982;8.398;2023-02-24T00:39:16;29.17;;;15.40;;
8592;SDS011;4334;49.982;8.398;2023-02-24T00:41:43;30.60;;;13.37;;
8592;SDS011;4334;49.982;8.398;2023-02-24T00:44:11;25.97;;;13.50;;
8592;SDS011;4334;49.982;8.398;2023-02-24T00:46:40;29.60;;;14.33;;
8592;SDS011;4334;49.982;8.398;2023-02-24T00:49:10;33.43;;;15.20;;
8592;SDS011;4334;49.982;8.398;2023-02-24T00:51:41;25.93;;;13.40;;
8592;SDS011;4334;49.982;8.398;2023-02-24T00:54:11;29.87;;;13.83;;
8592;SDS011;4334;49.982;8.398;2023-02-24T00:56:39;33.40;;;14.97;;
8592;SDS011;4334;49.982;8.398;2023-02-24T00:59:08;27.70;;;14.00;;
8592;SDS011;4334;49.982;8.398;2023-02-24T01:01:37;32.13;;;14.10;;
8592;SDS011;4334;49.982;8.398;2023-02-24T01:04:05;30.23;;;14.10;;
8592;SDS011;4334;49.982;8.398;2023-02-24T01:06:36;31.37;;;14.20;;
8592;SDS011;4334;49.982;8.398;2023-02-24T01:09:04;31.53;;;13.33;;
8592;SDS011;4334;49.982;8.398;2023-02-24T01:11:37;30.97;;;13.77;;
8592;SDS011;4334;49.982;8.398;2023-02-24T01:14:22;30.53;;;14.00;;
8592;SDS011;4334;49.982;8.398;2023-02-24T01:16:51;27.73;;;12.83;;
8592;SDS011;4334;49.982;8.398;2023-02-24T01:19:19;28.33;;;13.37;;
8592;SDS011;4334;49.982;8.398;2023-02-24T01:21:47;29.17;;;13.30;;
8592;SDS011;4334;49.982;8.398;2023-02-24T01:24:17;27.03;;;12.93;;
8592;SDS011;4334;49.982;8.398;2023-02-24T01:26:45;27.97;;;13.33;;
8592;SDS011;4334;49.982;8.398;2023-02-24T01:29:12;34.23;;;14.73;;
8592;SDS011;4334;49.982;8.398;2023-02-24T01:31:39;31.33;;;13.33;;
8592;SDS011;4334;49.982;8.398;2023-02-24T01:34:06;29.03;;;13.67;;
8592;SDS011;4334;49.982;8.398;2023-02-24T01:36:35;31.50;;;14.27;;
8592;SDS011;4334;49.982;8.398;2023-02-24T01:39:03;31.67;;;14.30;;
8592;SDS011;4334;49.982;8.398;2023-02-24T01:41:35;31.23;;;14.23;;
8592;SDS011;4334;49.982;8.398;2023-02-24T01:44:05;30.30;;;14.30;;
8592;SDS011;4334;49.982;8.398;2023-02-24T01:46:54;32.00;;;14.20;;
8592;SDS011;4334;49.982;8.398;2023-02-24T01:49:22;32.33;;;14.33;;
8592;SDS011;4334;49.982;8.398;2023-02-24T01:51:54;32.87;;;14.50;;
8592;SDS011;4334;49.982;8.398;2023-02-24T01:54:26;31.50;;;14.80;;
8592;SDS011;4334;49.982;8.398;2023-02-24T01:56:55;32.13;;;14.53;;
8592;SDS011;4334;49.982;8.398;2023-02-24T01:59:24;32.00;;;15.23;;
8592;SDS011;4334;49.982;8.398;2023-02-24T02:01:57;32.00;;;14.43;;
8592;SDS011;4334;49.982;8.398;2023-02-24T02:04:33;32.53;;;15.53;;
8592;SDS011;4334;49.982;8.398;2023-02-24T02:07:03;32.50;;;14.97;;
8592;SDS011;4334;49.982;8.398;2023-02-24T02:09:30;34.07;;;15.17;;
8592;SDS011;4334;49.982;8.398;2023-02-24T02:11:58;35.53;;;15.70;;
8592;SDS011;4334;49.982;8.398;2023-02-24T02:14:25;30.97;;;15.67;;
8592;SDS011;4334;49.982;8.398;2023-02-24T02:16:59;40.93;;;15.70;;
8592;SDS011;4334;49.982;8.398;2023-02-24T02:22:53;36.23;;;15.07;;
8592;SDS011;4334;49.982;8.398;2023-02-24T02:25:42;34.83;;;15.27;;
8592;SDS011;4334;49.982;8.398;2023-02-24T02:28:26;30.30;;;14.07;;
8592;SDS011;4334;49.982;8.398;2023-02-24T02:34:35;30.60;;;14.53;;
8592;SDS011;4334;49.982;8.398;2023-02-24T02:37:16;28.77;;;13.47;;
8592;SDS011;4334;49.982;8.398;2023-02-24T02:39:49;37.43;;;14.97;;
8592;SDS011;4334;49.982;8.398;2023-02-24T02:42:24;36.07;;;15.70;;
8592;SDS011;4334;49.982;8.398;2023-02-24T02:44:57;32.00;;;14.70;;
8592;SDS011;4334;49.982;8.398;2023-02-24T02:47:31;31.80;;;14.83;;
8592;SDS011;4334;49.982;8.398;2023-02-24T02:50:06;29.80;;;13.70;;
8592;SDS011;4334;49.982;8.398;2023-02-24T02:52:38;36.13;;;14.80;;
8592;SDS011;4334;49.982;8.398;2023-02-24T02:55:08;35.60;;;15.77;;
8592;SDS011;4334;49.982;8.398;2023-02-24T02:57:40;37.07;;;15.47;;
8592;SDS011;4334;49.982;8.398;2023-02-24T03:00:12;32.83;;;15.40;;
8592;SDS011;4334;49.982;8.398;2023-02-24T03:02:46;29.73;;;13.37;;
8592;SDS011;4334;49.982;8.398;2023-02-24T03:05:18;30.33;;;14.03;;
8592;SDS011;4334;49.982;8.398;2023-02-24T03:07:49;34.27;;;14.77;;
8592;SDS011;4334;49.982;8.398;2023-02-24T03:10:18;31.13;;;14.40;;
8592;SDS011;4334;49.982;8.398;2023-02-24T03:12:52;30.87;;;14.37;;
8592;SDS011;4334;49.982;8.398;2023-02-24T03:15:21;30.70;;;13.67;;
8592;SDS011;4334;49.982;8.398;2023-02-24T03:17:51;33.60;;;14.67;;
8592;SDS011;4334;49.982;8.398;2023-02-24T03:20:22;30.90;;;14.23;;
8592;SDS011;4334;49.982;8.398;2023-02-24T03:22:54;31.83;;;13.70;;
8592;SDS011;4334;49.982;8.398;2023-02-24T03:25:27;29.90;;;13.30;;
8592;SDS011;4334;49.982;8.398;2023-02-24T03:28:04;31.07;;;12.97;;
8592;SDS011;4334;49.982;8.398;2023-02-24T03:30:39;31.13;;;14.07;;
8592;SDS011;4334;49.982;8.398;2023-02-24T03:33:09;29.43;;;12.83;;
8592;SDS011;4334;49.982;8.398;2023-02-24T03:35:44;28.73;;;13.20;;
8592;SDS011;4334;49.982;8.398;2023-02-24T03:38:15;32.00;;;14.27;;
8592;SDS011;4334;49.982;8.398;2023-02-24T03:40:42;33.23;;;14.30;;
8592;SDS011;4334;49.982;8.398;2023-02-24T03:43:11;31.40;;;13.83;;
8592;SDS011;4334;49.982;8.398;2023-02-24T03:45:43;32.17;;;15.33;;
8592;SDS011;4334;49.982;8.398;2023-02-24T03:48:11;29.60;;;13.93;;
8592;SDS011;4334;49.982;8.398;2023-02-24T03:50:38;33.53;;;14.60;;
8592;SDS011;4334;49.982;8.398;2023-02-24T03:53:14;30.77;;;14.93;;
8592;SDS011;4334;49.982;8.398;2023-02-24T03:55:57;30.93;;;13.97;;
8592;SDS011;4334;49.982;8.398;2023-02-24T03:58:33;30.80;;;13.87;;
8592;SDS011;4334;49.982;8.398;2023-02-24T04:01:08;33.17;;;15.13;;
8592;SDS011;4334;49.982;8.398;2023-02-24T04:03:40;34.33;;;14.03;;
8592;SDS011;4334;49.982;8.398;2023-02-24T04:06:16;30.87;;;14.30;;
8592;SDS011;4334;49.982;8.398;2023-02-24T04:08:48;28.70;;;13.67;;
8592;SDS011;4334;49.982;8.398;2023-02-24T04:11:21;31.30;;;14.33;;
8592;SDS011;4334;49.982;8.398;2023-02-24T04:13:54;30.03;;;13.97;;
8592;SDS011;4334;49.982;8.398;2023-02-24T04:16:27;31.30;;;14.10;;
8592;SDS011;4334;49.982;8.398;2023-02-24T04:19:01;28.40;;;13.03;;
8592;SDS011;4334;49.982;8.398;2023-02-24T04:21:31;31.23;;;13.90;;
8592;SDS011;4334;49.982;8.398;2023-02-24T04:24:03;27.97;;;12.97;;
8592;SDS011;4334;49.982;8.398;2023-02-24T04:26:35;31.23;;;14.63;;
8592;SDS011;4334;49.982;8.398;2023-02-24T04:29:05;27.80;;;12.20;;
8592;SDS011;4334;49.982;8.398;2023-02-24T04:31:33;30.60;;;13.83;;
8592;SDS011;4334;49.982;8.398;2023-02-24T04:34:02;30.00;;;13.80;;
8592;SDS011;4334;49.982;8.398;2023-02-24T04:36:33;27.73;;;12.67;;
8592;SDS011;4334;49.982;8.398;2023-02-24T04:39:01;30.30;;;14.00;;
8592;SDS011;4334;49.982;8.398;2023-02-24T04:41:29;33.30;;;14.20;;
8592;SDS011;4334;49.982;8.398;2023-02-24T04:43:56;32.87;;;14.53;;
8592;SDS011;4334;49.982;8.398;2023-02-24T04:46:22;36.63;;;14.27;;
8592;SDS011;4334;49.982;8.398;2023-02-24T04:48:49;34.13;;;13.63;;
8592;SDS011;4334;49.982;8.398;2023-02-24T04:51:16;31.73;;;13.70;;
8592;SDS011;4334;49.982;8.398;2023-02-24T04:53:44;32.10;;;13.67;;
8592;SDS011;4334;49.982;8.398;2023-02-24T04:56:12;30.53;;;13.87;;
8592;SDS011;4334;49.982;8.398;2023-02-24T04:58:39;32.97;;;14.77;;
8592;SDS011;4334;49.982;8.398;2023-02-24T05:01:08;31.57;;;14.60;;
8592;SDS011;4334;49.982;8.398;2023-02-24T05:03:36;32.57;;;13.30;;
8592;SDS011;4334;49.982;8.398;2023-02-24T05:06:06;31.33;;;14.03;;
8592;SDS011;4334;49.982;8.398;2023-02-24T05:08:38;33.40;;;14.10;;
8592;SDS011;4334;49.982;8.398;2023-02-24T05:11:05;35.27;;;14.83;;
8592;SDS011;4334;49.982;8.398;2023-02-24T05:13:33;33.10;;;14.00;;
8592;SDS011;4334;49.982;8.398;2023-02-24T05:16:02;35.07;;;15.87;;
8592;SDS011;4334;49.982;8.398;2023-02-24T05:18:31;33.43;;;15.63;;
8592;SDS011;4334;49.982;8.398;2023-02-24T05:21:03;30.40;;;13.73;;
8592;SDS011;4334;49.982;8.398;2023-02-24T05:23:49;35.50;;;15.53;;
8592;SDS011;4334;49.982;8.398;2023-02-24T05:26:18;31.10;;;14.47;;
8592;SDS011;4334;49.982;8.398;2023-02-24T05:28:47;39.30;;;15.63;;
8592;SDS011;4334;49.982;8.398;2023-02-24T05:31:17;43.90;;;14.97;;
8592;SDS011;4334;49.982;8.398;2023-02-24T05:33:45;44.23;;;15.63;;
8592;SDS011;4334;49.982;8.398;2023-02-24T05:36:15;39.13;;;15.57;;
8592;SDS011;4334;49.982;8.398;2023-02-24T05:38:44;38.67;;;15.23;;
8592;SDS011;4334;49.982;8.398;2023-02-24T05:41:12;36.47;;;15.90;;
8592;SDS011;4334;49.982;8.398;2023-02-24T05:43:41;34.60;;;14.20;;
8592;SDS011;4334;49.982;8.398;2023-02-24T05:46:13;38.47;;;16.03;;
8592;SDS011;4334;49.982;8.398;2023-02-24T05:48:40;38.37;;;16.60;;
8592;SDS011;4334;49.982;8.398;2023-02-24T05:51:08;38.27;;;14.73;;
8592;SDS011;4334;49.982;8.398;2023-02-24T05:53:36;43.77;;;16.43;;
8592;SDS011;4334;49.982;8.398;2023-02-24T05:56:05;42.83;;;16.93;;
8592;SDS011;4334;49.982;8.398;2023-02-24T05:58:32;36.47;;;15.50;;
8592;SDS011;4334;49.982;8.398;2023-02-24T06:01:08;32.10;;;14.50;;
8592;SDS011;4334;49.982;8.398;2023-02-24T06:03:41;39.03;;;16.70;;
8592;SDS011;4334;49.982;8.398;2023-02-24T06:06:11;39.37;;;15.67;;
8592;SDS011;4334;49.982;8.398;2023-02-24T06:08:39;40.43;;;16.50;;
8592;SDS011;4334;49.982;8.398;2023-02-24T06:11:12;41.27;;;15.83;;
8592;SDS011;4334;49.982;8.398;2023-02-24T06:13:39;38.63;;;16.17;;
8592;SDS011;4334;49.982;8.398;2023-02-24T06:16:10;35.07;;;15.23;;
8592;SDS011;4334;49.982;8.398;2023-02-24T06:18:39;46.87;;;15.73;;
8592;SDS011;4334;49.982;8.398;2023-02-24T06:21:07;43.97;;;16.23;;
8592;SDS011;4334;49.982;8.398;2023-02-24T06:23:36;40.97;;;16.90;;
8592;SDS011;4334;49.982;8.398;2023-02-24T06:26:03;43.37;;;16.33;;
8592;SDS011;4334;49.982;8.398;2023-02-24T06:28:37;39.80;;;16.47;;
8592;SDS011;4334;49.982;8.398;2023-02-24T06:31:07;39.17;;;16.37;;
8592;SDS011;4334;49.982;8.398;2023-02-24T06:33:34;39.87;;;16.43;;
8592;SDS011;4334;49.982;8.398;2023-02-24T06:36:02;38.50;;;15.90;;
8592;SDS011;4334;49.982;8.398;2023-02-24T06:38:31;33.67;;;14.73;;
8592;SDS011;4334;49.982;8.398;2023-02-24T06:40:59;41.27;;;16.67;;
8592;SDS011;4334;49.982;8.398;2023-02-24T06:43:28;38.83;;;15.63;;
8592;SDS011;4334;49.982;8.398;2023-02-24T06:45:55;39.67;;;16.20;;
8592;SDS011;4334;49.982;8.398;2023-02-24T06:48:26;42.17;;;16.33;;
8592;SDS011;4334;49.982;8.398;2023-02-24T06:50:53;42.63;;;16.90;;
8592;SDS011;4334;49.982;8.398;2023-02-24T06:53:20;40.90;;;17.13;;
8592;SDS011;4334;49.982;8.398;2023-02-24T06:55:49;39.23;;;16.37;;
8592;SDS011;4334;49.982;8.398;2023-02-24T06:58:17;41.27;;;16.73;;
8592;SDS011;4334;49.982;8.398;2023-02-24T07:00:45;44.13;;;18.47;;
8592;SDS011;4334;49.982;8.398;2023-02-24T07:03:21;40.13;;;17.90;;
8592;SDS011;4334;49.982;8.398;2023-02-24T07:05:50;37.93;;;16.57;;
8592;SDS011;4334;49.982;8.398;2023-02-24T07:08:35;37.80;;;16.10;;
8592;SDS011;4334;49.982;8.398;2023-02-24T07:11:04;40.90;;;17.37;;
8592;SDS011;4334;49.982;8.398;2023-02-24T07:13:32;39.53;;;18.10;;
8592;SDS011;4334;49.982;8.398;2023-02-24T07:16:01;40.83;;;17.47;;
8592;SDS011;4334;49.982;8.398;2023-02-24T07:18:31;40.10;;;17.20;;
8592;SDS011;4334;49.982;8.398;2023-02-24T07:21:00;41.70;;;18.23;;
8592;SDS011;4334;49.982;8.398;2023-02-24T07:23:29;38.03;;;18.10;;
8592;SDS011;4334;49.982;8.398;2023-02-24T07:25:56;32.13;;;16.57;;
8592;SDS011;4334;49.982;8.398;2023-02-24T07:28:24;35.97;;;17.40;;
8592;SDS011;4334;49.982;8.398;2023-02-24T07:30:52;34.93;;;16.73;;
8592;SDS011;4334;49.982;8.398;2023-02-24T07:33:19;39.57;;;16.93;;
8592;SDS011;4334;49.982;8.398;2023-02-24T07:35:48;35.77;;;16.90;;
8592;SDS011;4334;49.982;8.398;2023-02-24T07:38:15;34.57;;;17.43;;
8592;SDS011;4334;49.982;8.398;2023-02-24T07:40:47;35.47;;;18.17;;
8592;SDS011;4334;49.982;8.398;2023-02-24T07:43:15;30.60;;;16.57;;
8592;SDS011;4334;49.982;8.398;2023-02-24T07:45:44;32.53;;;17.20;;
8592;SDS011;4334;49.982;8.398;2023-02-24T07:48:12;31.93;;;16.57;;
8592;SDS011;4334;49.982;8.398;2023-02-24T07:50:39;33.83;;;16.70;;
8592;SDS011;4334;49.982;8.398;2023-02-24T07:53:07;31.43;;;16.73;;
8592;SDS011;4334;49.982;8.398;2023-02-24T07:55:34;31.20;;;16.70;;
8592;SDS011;4334;49.982;8.398;2023-02-24T07:58:01;29.30;;;14.63;;
8592;SDS011;4334;49.982;8.398;2023-02-24T08:00:29;32.03;;;16.17;;
8592;SDS011;4334;49.982;8.398;2023-02-24T08:03:15;33.13;;;17.10;;
8592;SDS011;4334;49.982;8.398;2023-02-24T08:05:42;33.27;;;16.67;;
8592;SDS011;4334;49.982;8.398;2023-02-24T08:08:08;31.77;;;17.37;;
8592;SDS011;4334;49.982;8.398;2023-02-24T08:10:38;36.13;;;17.30;;
8592;SDS011;4334;49.982;8.398;2023-02-24T08:13:05;34.40;;;18.30;;
8592;SDS011;4334;49.982;8.398;2023-02-24T08:15:35;34.67;;;17.40;;
8592;SDS011;4334;49.982;8.398;2023-02-24T08:18:02;33.13;;;17.07;;
8592;SDS011;4334;49.982;8.398;2023-02-24T08:20:31;36.07;;;17.27;;
8592;SDS011;4334;49.982;8.398;2023-02-24T08:23:15;30.53;;;16.13;;
8592;SDS011;4334;49.982;8.398;2023-02-24T08:25:42;33.67;;;15.70;;
8592;SDS011;4334;49.982;8.398;2023-02-24T08:28:10;32.30;;;16.33;;
8592;SDS011;4334;49.982;8.398;2023-02-24T08:30:38;26.80;;;14.87;;
8592;SDS011;4334;49.982;8.398;2023-02-24T08:33:10;29.70;;;14.53;;
8592;SDS011;4334;49.982;8.398;2023-02-24T08:35:41;26.13;;;14.80;;
8592;SDS011;4334;49.982;8.398;2023-02-24T08:38:10;30.63;;;15.27;;
8592;SDS011;4334;49.982;8.398;2023-02-24T08:40:42;27.23;;;14.93;;
8592;SDS011;4334;49.982;8.398;2023-02-24T08:43:20;27.40;;;14.87;;
8592;SDS011;4334;49.982;8.398;2023-02-24T08:45:57;27.40;;;15.17;;
8592;SDS011;4334;49.982;8.398;2023-02-24T08:48:29;25.17;;;14.40;;
8592;SDS011;4334;49.982;8.398;2023-02-24T08:51:06;27.20;;;14.50;;
8592;SDS011;4334;49.982;8.398;2023-02-24T08:53:36;26.33;;;14.63;;
8592;SDS011;4334;49.982;8.398;2023-02-24T08:56:05;27.17;;;14.67;;
8592;SDS011;4334;49.982;8.398;2023-02-24T08:58:37;26.17;;;14.50;;
8592;SDS011;4334;49.982;8.398;2023-02-24T09:01:11;26.37;;;14.20;;
8592;SDS011;4334;49.982;8.398;2023-02-24T09:03:43;26.57;;;14.60;;
8592;SDS011;4334;49.982;8.398;2023-02-24T09:06:13;26.70;;;15.33;;
8592;SDS011;4334;49.982;8.398;2023-02-24T09:08:42;24.00;;;13.83;;
8592;SDS011;4334;49.982;8.398;2023-02-24T09:11:11;28.80;;;14.93;;
8592;SDS011;4334;49.982;8.398;2023-02-24T09:13:40;24.53;;;14.37;;
8592;SDS011;4334;49.982;8.398;2023-02-24T09:16:16;25.70;;;14.23;;
8592;SDS011;4334;49.982;8.398;2023-02-24T09:18:44;28.67;;;15.93;;
8592;SDS011;4334;49.982;8.398;2023-02-24T09:21:33;29.43;;;15.63;;
8592;SDS011;4334;49.982;8.398;2023-02-24T09:24:17;27.03;;;15.20;;
8592;SDS011;4334;49.982;8.398;2023-02-24T09:26:51;30.87;;;15.03;;
8592;SDS011;4334;49.982;8.398;2023-02-24T09:29:22;25.90;;;15.70;;
8592;SDS011;4334;49.982;8.398;2023-02-24T09:31:59;30.07;;;15.43;;
8592;SDS011;4334;49.982;8.398;2023-02-24T09:34:30;24.73;;;13.90;;
8592;SDS011;4334;49.982;8.398;2023-02-24T09:36:59;23.23;;;13.20;;
8592;SDS011;4334;49.982;8.398;2023-02-24T09:39:29;25.53;;;13.17;;
8592;SDS011;4334;49.982;8.398;2023-02-24T09:42:19;25.00;;;13.63;;
8592;SDS011;4334;49.982;8.398;2023-02-24T09:45:11;23.80;;;12.67;;
8592;SDS011;4334;49.982;8.398;2023-02-24T09:47:43;22.83;;;12.50;;
8592;SDS011;4334;49.982;8.398;2023-02-24T09:50:26;22.07;;;12.43;;
8592;SDS011;4334;49.982;8.398;2023-02-24T09:53:12;21.97;;;12.73;;
8592;SDS011;4334;49.982;8.398;2023-02-24T09:55:43;20.23;;;12.17;;
8592;SDS011;4334;49.982;8.398;2023-02-24T09:58:30;23.70;;;12.67;;
8592;SDS011;4334;49.982;8.398;2023-02-24T10:01:05;23.93;;;12.67;;
8592;SDS011;4334;49.982;8.398;2023-02-24T10:03:56;19.83;;;13.13;;
8592;SDS011;4334;49.982;8.398;2023-02-24T10:06:30;24.60;;;14.00;;
8592;SDS011;4334;49.982;8.398;2023-02-24T10:09:03;25.50;;;14.27;;
8592;SDS011;4334;49.982;8.398;2023-02-24T10:11:39;23.87;;;13.87;;
8592;SDS011;4334;49.982;8.398;2023-02-24T10:14:19;22.03;;;13.07;;
8592;SDS011;4334;49.982;8.398;2023-02-24T10:16:53;21.80;;;13.23;;
8592;SDS011;4334;49.982;8.398;2023-02-24T10:19:35;26.80;;;14.67;;
8592;SDS011;4334;49.982;8.398;2023-02-24T10:22:06;23.93;;;13.73;;
8592;SDS011;4334;49.982;8.398;2023-02-24T10:24:53;23.17;;;13.97;;
8592;SDS011;4334;49.982;8.398;2023-02-24T10:27:36;24.23;;;14.13;;
8592;SDS011;4334;49.982;8.398;2023-02-24T10:30:10;26.23;;;13.83;;
8592;SDS011;4334;49.982;8.398;2023-02-24T10:32:46;22.10;;;13.30;;
8592;SDS011;4334;49.982;8.398;2023-02-24T10:35:17;20.40;;;12.60;;
8592;SDS011;4334;49.982;8.398;2023-02-24T10:37:50;24.80;;;12.70;;
8592;SDS011;4334;49.982;8.398;2023-02-24T10:40:18;25.47;;;14.07;;
8592;SDS011;4334;49.982;8.398;2023-02-24T10:43:01;23.63;;;13.63;;
8592;SDS011;4334;49.982;8.398;2023-02-24T10:45:36;23.17;;;13.77;;
8592;SDS011;4334;49.982;8.398;2023-02-24T10:48:09;23.67;;;13.50;;
8592;SDS011;4334;49.982;8.398;2023-02-24T10:50:49;19.03;;;11.53;;
8592;SDS011;4334;49.982;8.398;2023-02-24T10:53:19;21.43;;;12.00;;
8592;SDS011;4334;49.982;8.398;2023-02-24T10:56:21;19.77;;;11.87;;
8592;SDS011;4334;49.982;8.398;2023-02-24T10:59:08;18.20;;;11.00;;
8592;SDS011;4334;49.982;8.398;2023-02-24T11:02:13;15.10;;;9.40;;
8592;SDS011;4334;49.982;8.398;2023-02-24T11:04:51;14.77;;;9.13;;
8592;SDS011;4334;49.982;8.398;2023-02-24T11:07:39;16.60;;;9.27;;
8592;SDS011;4334;49.982;8.398;2023-02-24T11:10:19;16.77;;;8.83;;
8592;SDS011;4334;49.982;8.398;2023-02-24T11:12:58;15.47;;;9.10;;
8592;SDS011;4334;49.982;8.398;2023-02-24T11:15:44;16.03;;;9.37;;
8592;SDS011;4334;49.982;8.398;2023-02-24T11:18:31;14.60;;;8.87;;
8592;SDS011;4334;49.982;8.398;2023-02-24T11:20:59;15.97;;;10.00;;
8592;SDS011;4334;49.982;8.398;2023-02-24T11:23:28;16.73;;;8.83;;
8592;SDS011;4334;49.982;8.398;2023-02-24T11:25:59;19.40;;;10.17;;
8592;SDS011;4334;49.982;8.398;2023-02-24T11:28:35;17.03;;;10.23;;
8592;SDS011;4334;49.982;8.398;2023-02-24T11:31:27;16.40;;;9.77;;
8592;SDS011;4334;49.982;8.398;2023-02-24T11:34:06;16.53;;;9.47;;
8592;SDS011;4334;49.982;8.398;2023-02-24T11:36:43;17.30;;;10.20;;
8592;SDS011;4334;49.982;8.398;2023-02-24T11:39:26;17.33;;;10.47;;
8592;SDS011;4334;49.982;8.398;2023-02-24T11:42:08;16.60;;;10.03;;
8592;SDS011;4334;49.982;8.398;2023-02-24T11:44:41;16.57;;;9.77;;
8592;SDS011;4334;49.982;8.398;2023-02-24T11:47:15;17.53;;;10.17;;
8592;SDS011;4334;49.982;8.398;2023-02-24T11:49:47;16.67;;;9.87;;
8592;SDS011;4334;49.982;8.398;2023-02-24T11:52:17;20.87;;;10.77;;
8592;SDS011;4334;49.982;8.398;2023-02-24T11:54:47;16.77;;;10.07;;
8592;SDS011;4334;49.982;8.398;2023-02-24T11:57:19;15.30;;;9.57;;
8592;SDS011;4334;49.982;8.398;2023-02-24T11:59:57;15.40;;;9.17;;
8592;SDS011;4334;49.982;8.398;2023-02-24T12:02:50;17.17;;;8.27;;
8592;SDS011;4334;49.982;8.398;2023-02-24T12:05:24;15.63;;;7.90;;
8592;SDS011;4334;49.982;8.398;2023-02-24T12:07:53;15.13;;;8.13;;
8592;SDS011;4334;49.982;8.398;2023-02-24T12:10:23;17.80;;;8.00;;
8592;SDS011;4334;49.982;8.398;2023-02-24T12:12:58;14.67;;;8.27;;
8592;SDS011;4334;49.982;8.398;2023-02-24T12:15:33;14.90;;;8.17;;
8592;SDS011;4334;49.982;8.398;2023-02-24T12:18:08;13.07;;;7.87;;
8592;SDS011;4334;49.982;8.398;2023-02-24T12:20:42;12.60;;;7.13;;
8592;SDS011;4334;49.982;8.398;2023-02-24T12:23:14;10.63;;;7.00;;
8592;SDS011;4334;49.982;8.398;2023-02-24T12:25:50;10.87;;;7.17;;
8592;SDS011;4334;49.982;8.398;2023-02-24T12:28:35;13.70;;;7.00;;
8592;SDS011;4334;49.982;8.398;2023-02-24T12:31:18;11.93;;;7.37;;
8592;SDS011;4334;49.982;8.398;2023-02-24T12:33:57;10.87;;;7.33;;
8592;SDS011;4334;49.982;8.398;2023-02-24T12:36:36;13.13;;;7.50;;
8592;SDS011;4334;49.982;8.398;2023-02-24T12:39:26;10.20;;;6.47;;
8592;SDS011;4334;49.982;8.398;2023-02-24T12:42:00;10.63;;;6.50;;
8592;SDS011;4334;49.982;8.398;2023-02-24T12:44:38;9.70;;;5.97;;
8592;SDS011;4334;49.982;8.398;2023-02-24T12:47:15;9.50;;;5.77;;
8592;SDS011;4334;49.982;8.398;2023-02-24T12:49:52;13.77;;;5.67;;
8592;SDS011;4334;49.982;8.398;2023-02-24T12:52:33;9.40;;;5.43;;
8592;SDS011;4334;49.982;8.398;2023-02-24T12:55:10;9.20;;;5.60;;
8592;SDS011;4334;49.982;8.398;2023-02-24T12:57:46;10.23;;;5.47;;
8592;SDS011;4334;49.982;8.398;2023-02-24T13:00:20;8.83;;;5.67;;
8592;SDS011;4334;49.982;8.398;2023-02-24T13:03:00;8.70;;;5.50;;
8592;SDS011;4334;49.982;8.398;2023-02-24T13:05:41;9.27;;;5.67;;
8592;SDS011;4334;49.982;8.398;2023-02-24T13:08:18;9.27;;;5.43;;
8592;SDS011;4334;49.982;8.398;2023-02-24T13:10:56;10.17;;;6.60;;
8592;SDS011;4334;49.982;8.398;2023-02-24T13:13:30;10.00;;;5.17;;
8592;SDS011;4334;49.982;8.398;2023-02-24T13:16:02;10.30;;;5.97;;
8592;SDS011;4334;49.982;8.398;2023-02-24T13:18:31;7.93;;;4.93;;
8592;SDS011;4334;49.982;8.398;2023-02-24T13:21:00;12.80;;;6.43;;
8592;SDS011;4334;49.982;8.398;2023-02-24T13:23:30;8.67;;;5.27;;
8592;SDS011;4334;49.982;8.398;2023-02-24T13:25:57;9.73;;;5.40;;
8592;SDS011;4334;49.982;8.398;2023-02-24T13:28:24;8.47;;;5.50;;
8592;SDS011;4334;49.982;8.398;2023-02-24T13:31:02;9.57;;;5.47;;
8592;SDS011;4334;49.982;8.398;2023-02-24T13:33:32;9.07;;;5.23;;
8592;SDS011;4334;49.982;8.398;2023-02-24T13:36:07;5.57;;;3.13;;
8592;SDS011;4334;49.982;8.398;2023-02-24T13:38:37;8.60;;;5.30;;
8592;SDS011;4334;49.982;8.398;2023-02-24T13:41:06;8.87;;;5.50;;
8592;SDS011;4334;49.982;8.398;2023-02-24T13:43:51;8.63;;;5.00;;
8592;SDS011;4334;49.982;8.398;2023-02-24T13:46:20;7.43;;;4.87;;
8592;SDS011;4334;49.982;8.398;2023-02-24T13:51:59;9.63;;;4.90;;
8592;SDS011;4334;49.982;8.398;2023-02-24T13:54:45;7.80;;;5.10;;
8592;SDS011;4334;49.982;8.398;2023-02-24T14:00:49;8.20;;;5.00;;
8592;SDS011;4334;49.982;8.398;2023-02-24T14:03:25;9.97;;;4.70;;
8592;SDS011;4334;49.982;8.398;2023-02-24T14:05:55;9.30;;;5.53;;
8592;SDS011;4334;49.982;8.398;2023-02-24T14:08:24;8.60;;;5.60;;
8592;SDS011;4334;49.982;8.398;2023-02-24T14:10:57;8.43;;;5.70;;
8592;SDS011;4334;49.982;8.398;2023-02-24T14:13:28;10.97;;;6.67;;
8592;SDS011;4334;49.982;8.398;2023-02-24T14:15:58;11.13;;;6.43;;
8592;SDS011;4334;49.982;8.398;2023-02-24T14:18:29;10.70;;;6.63;;
8592;SDS011;4334;49.982;8.398;2023-02-24T14:20:57;12.70;;;6.70;;
8592;SDS011;4334;49.982;8.398;2023-02-24T14:23:25;12.60;;;7.10;;
8592;SDS011;4334;49.982;8.398;2023-02-24T14:25:53;16.67;;;7.87;;
8592;SDS011;4334;49.982;8.398;2023-02-24T14:28:24;13.93;;;8.00;;
8592;SDS011;4334;49.982;8.398;2023-02-24T14:30:54;14.20;;;7.23;;
8592;SDS011;4334;49.982;8.398;2023-02-24T14:33:25;13.10;;;7.53;;
8592;SDS011;4334;49.982;8.398;2023-02-24T14:35:55;15.10;;;7.70;;
8592;SDS011;4334;49.982;8.398;2023-02-24T14:38:31;13.43;;;6.90;;
8592;SDS011;4334;49.982;8.398;2023-02-24T14:40:59;11.70;;;6.87;;
8592;SDS011;4334;49.982;8.398;2023-02-24T14:43:27;15.40;;;6.83;;
8592;SDS011;4334;49.982;8.398;2023-02-24T14:45:54;10.23;;;6.20;;
8592;SDS011;4334;49.982;8.398;2023-02-24T14:48:23;11.53;;;6.63;;
8592;SDS011;4334;49.982;8.398;2023-02-24T14:50:51;11.67;;;6.77;;
8592;SDS011;4334;49.982;8.398;2023-02-24T14:53:19;10.57;;;5.67;;
8592;SDS011;4334;49.982;8.398;2023-02-24T14:55:50;10.60;;;6.03;;
8592;SDS011;4334;49.982;8.398;2023-02-24T14:58:22;12.47;;;6.30;;
8592;SDS011;4334;49.982;8.398;2023-02-24T15:00:52;10.93;;;6.20;;
8592;SDS011;4334;49.982;8.398;2023-02-24T15:03:23;10.17;;;5.93;;
8592;SDS011;4334;49.982;8.398;2023-02-24T15:05:54;9.90;;;5.63;;
8592;SDS011;4334;49.982;8.398;2023-02-24T15:08:28;9.40;;;5.10;;
8592;SDS011;4334;49.982;8.398;2023-02-24T15:11:02;9.97;;;5.17;;
8592;SDS011;4334;49.982;8.398;2023-02-24T15:13:36;11.43;;;5.80;;
8592;SDS011;4334;49.982;8.398;2023-02-24T15:16:07;8.83;;;5.43;;
8592;SDS011;4334;49.982;8.398;2023-02-24T15:18:37;8.60;;;4.87;;
8592;SDS011;4334;49.982;8.398;2023-02-24T15:21:06;7.30;;;4.13;;
8592;SDS011;4334;49.982;8.398;2023-02-24T15:23:43;7.87;;;4.03;;
8592;SDS011;4334;49.982;8.398;2023-02-24T15:26:23;7.60;;;4.60;;
8592;SDS011;4334;49.982;8.398;2023-02-24T15:28:55;6.37;;;4.33;;
8592;SDS011;4334;49.982;8.398;2023-02-24T15:31:23;6.00;;;3.83;;
8592;SDS011;4334;49.982;8.398;2023-02-24T15:33:53;6.97;;;4.00;;
8592;SDS011;4334;49.982;8.398;2023-02-24T15:36:23;6.13;;;4.10;;
8592;SDS011;4334;49.982;8.398;2023-02-24T15:38:52;6.13;;;3.97;;